Time;durP1;ratioP1;P1;durP2;ratioP2;P2;SDS_P1;SDS_P2;PMS_P1;PMS_P2;Temp;Humidity;BMP_temperature;BMP_pressure;BME280_temperature;BME280_humidity;BME280_pressure;Samples;Min_cycle;Max_cycle;Signal;HPM_P1;HPM_P2
2024/01/25 00:01:16;;;;;;;9.15;3.22;;;;;;;;;;5013328;28;20041;-82
2024/01/25 00:03:42;;;;;;;5.38;2.90;;;;;;;;;;5025885;28;20025;-83
2024/01/25 00:06:08;;;;;;;4.40;3.20;;;;;;;;;;5031528;28;20057;-82
2024/01/25 00:08:34;;;;;;;6.72;2.97;;;;;;;;;;5032957;28;20362;-82
2024/01/25 00:11:01;;;;;;;13.95;2.78;;;;;;;;;;5028446;28;20034;-82
2024/01/25 00:13:27;;;;;;;2.35;1.20;;;;;;;;;;5025163;28;20101;-82
2024/01/25 00:15:53;;;;;;;6.03;1.88;;;;;;;;;;5027546;28;20077;-82
2024/01/25 00:18:20;;;;;;;3.42;1.70;;;;;;;;;;5028698;28;20029;-82
2024/01/25 00:20:45;;;;;;;4.63;2.58;;;;;;;;;;5016677;28;20038;-82
2024/01/25 00:23:11;;;;;;;5.72;2.05;;;;;;;;;;5031283;28;20793;-82
2024/01/25 00:25:37;;;;;;;7.93;1.90;;;;;;;;;;5033092;28;20033;-82
2024/01/25 00:28:04;;;;;;;3.28;1.27;;;;;;;;;;5028185;28;20026;-82
2024/01/25 00:30:30;;;;;;;1.27;0.65;;;;;;;;;;5032820;28;20040;-82
2024/01/25 00:32:59;;;;;;;1.25;0.70;;;;;;;;;;5031207;28;20037;-82
2024/01/25 00:35:25;;;;;;;0.73;0.47;;;;;;;;;;5031628;28;20037;-82
2024/01/25 00:37:51;;;;;;;1.70;0.55;;;;;;;;;;5032048;28;20076;-82
2024/01/25 00:40:18;;;;;;;1.48;0.70;;;;;;;;;;5032555;28;20033;-82
2024/01/25 00:42:48;;;;;;;4.82;0.70;;;;;;;;;;5014440;28;20077;-82
2024/01/25 00:45:15;;;;;;;0.20;0.20;;;;;;;;;;5016882;28;20060;-82
2024/01/25 00:47:41;;;;;;;4.75;1.55;;;;;;;;;;5025954;28;20121;-82
2024/01/25 00:50:07;;;;;;;2.67;1.10;;;;;;;;;;5028186;28;20033;-82
2024/01/25 00:52:33;;;;;;;3.00;1.90;;;;;;;;;;5025237;28;20057;-82
2024/01/25 00:54:59;;;;;;;4.57;2.28;;;;;;;;;;5025085;28;20042;-82
2024/01/25 00:57:25;;;;;;;2.95;1.50;;;;;;;;;;5032885;28;20356;-82
2024/01/25 00:59:52;;;;;;;3.95;2.28;;;;;;;;;;5032585;28;20044;-82
2024/01/25 01:02:18;;;;;;;3.10;1.13;;;;;;;;;;5027884;28;20034;-83
2024/01/25 01:04:44;;;;;;;2.58;1.40;;;;;;;;;;5020087;28;20038;-82
2024/01/25 01:07:10;;;;;;;4.13;2.45;;;;;;;;;;5011620;28;20022;-82
2024/01/25 01:09:36;;;;;;;13.68;1.70;;;;;;;;;;5034453;28;20839;-82
2024/01/25 01:12:02;;;;;;;1.25;0.43;;;;;;;;;;5034705;28;20017;-82
2024/01/25 01:14:28;;;;;;;3.58;1.55;;;;;;;;;;5024173;28;20069;-82
2024/01/25 01:16:55;;;;;;;1.45;0.85;;;;;;;;;;5015847;28;20490;-82
2024/01/25 01:19:21;;;;;;;1.50;0.70;;;;;;;;;;5027016;28;20042;-82
2024/01/25 01:21:47;;;;;;;1.23;0.52;;;;;;;;;;5036319;28;20029;-82
2024/01/25 01:24:13;;;;;;;2.60;0.90;;;;;;;;;;5030129;28;20084;-82
2024/01/25 01:26:41;;;;;;;2.20;1.08;;;;;;;;;;5017282;28;20033;-82
2024/01/25 01:29:08;;;;;;;1.40;0.25;;;;;;;;;;5036213;28;20036;-82
2024/01/25 01:31:34;;;;;;;3.33;0.73;;;;;;;;;;5024359;28;20030;-82
2024/01/25 01:34:00;;;;;;;1.42;0.82;;;;;;;;;;5016561;28;20037;-83
2024/01/25 01:36:26;;;;;;;1.02;0.63;;;;;;;;;;5016034;28;20034;-83
2024/01/25 01:38:52;;;;;;;2.15;0.80;;;;;;;;;;5032242;28;20033;-83
2024/01/25 01:41:18;;;;;;;1.25;0.55;;;;;;;;;;5023630;28;20036;-82
2024/01/25 01:43:44;;;;;;;1.92;0.70;;;;;;;;;;5029506;28;20038;-83
2024/01/25 01:46:11;;;;;;;0.38;0.22;;;;;;;;;;5016216;28;20026;-83
2024/01/25 01:48:40;;;;;;;1.25;0.55;;;;;;;;;;5028621;28;20025;-83
2024/01/25 01:51:06;;;;;;;1.35;0.60;;;;;;;;;;5034991;28;20453;-83
2024/01/25 01:53:33;;;;;;;2.63;1.00;;;;;;;;;;5026468;28;20049;-82
2024/01/25 01:55:59;;;;;;;2.50;0.55;;;;;;;;;;5036139;28;20041;-83
2024/01/25 01:58:27;;;;;;;5.13;0.80;;;;;;;;;;5034385;28;20052;-83
2024/01/25 02:00:53;;;;;;;2.47;1.45;;;;;;;;;;5034474;28;20044;-83
2024/01/25 02:03:20;;;;;;;1.63;0.80;;;;;;;;;;5025157;28;20030;-83
2024/01/25 02:05:46;;;;;;;1.08;0.70;;;;;;;;;;5034075;28;20467;-82
2024/01/25 02:08:12;;;;;;;1.58;0.93;;;;;;;;;;5030500;28;20493;-82
2024/01/25 02:10:39;;;;;;;0.90;0.40;;;;;;;;;;5019008;28;20029;-82
2024/01/25 02:13:04;;;;;;;1.92;0.68;;;;;;;;;;5033562;28;20036;-83
2024/01/25 02:15:30;;;;;;;2.95;1.30;;;;;;;;;;5030593;28;20042;-82
2024/01/25 02:17:57;;;;;;;2.42;1.10;;;;;;;;;;5027207;28;20586;-83
2024/01/25 02:20:23;;;;;;;2.83;1.02;;;;;;;;;;5028985;28;20080;-82
2024/01/25 02:22:49;;;;;;;3.55;0.85;;;;;;;;;;5024124;28;20120;-83
2024/01/25 02:25:15;;;;;;;0.82;0.57;;;;;;;;;;5031102;28;20479;-83
2024/01/25 02:27:41;;;;;;;2.20;0.47;;;;;;;;;;5034124;28;20119;-83
2024/01/25 02:30:07;;;;;;;0.77;0.35;;;;;;;;;;5037604;28;20109;-83
2024/01/25 02:32:33;;;;;;;0.60;0.50;;;;;;;;;;5029610;28;20030;-83
2024/01/25 02:34:59;;;;;;;0.73;0.50;;;;;;;;;;5013831;28;20940;-83
2024/01/25 02:37:25;;;;;;;0.85;0.60;;;;;;;;;;5020385;28;20032;-83
2024/01/25 02:39:52;;;;;;;1.50;0.50;;;;;;;;;;5031327;28;20128;-83
2024/01/25 02:42:18;;;;;;;2.00;1.00;;;;;;;;;;5034331;28;20068;-83
2024/01/25 02:44:44;;;;;;;4.78;1.45;;;;;;;;;;5031068;28;20040;-83
2024/01/25 02:47:10;;;;;;;1.60;0.93;;;;;;;;;;5032658;28;20021;-83
2024/01/25 02:49:36;;;;;;;0.77;0.60;;;;;;;;;;5024963;28;20030;-82
2024/01/25 02:52:02;;;;;;;3.28;1.30;;;;;;;;;;5014002;28;20088;-82
2024/01/25 02:54:28;;;;;;;2.70;1.02;;;;;;;;;;5032586;28;20533;-82
2024/01/25 02:56:54;;;;;;;1.25;0.82;;;;;;;;;;5015988;28;20034;-82
2024/01/25 02:59:20;;;;;;;7.97;1.90;;;;;;;;;;5027305;28;20472;-83
2024/01/25 03:01:46;;;;;;;3.53;1.30;;;;;;;;;;5017095;28;20060;-82
2024/01/25 03:04:12;;;;;;;1.08;0.55;;;;;;;;;;5031906;28;20048;-82
2024/01/25 03:06:38;;;;;;;1.55;0.98;;;;;;;;;;5015985;28;20021;-83
2024/01/25 03:09:04;;;;;;;4.07;1.38;;;;;;;;;;5021572;28;20029;-82
2024/01/25 03:11:30;;;;;;;2.17;1.63;;;;;;;;;;5033379;28;20062;-82
2024/01/25 03:13:56;;;;;;;3.47;1.30;;;;;;;;;;5027072;28;20033;-82
2024/01/25 03:16:23;;;;;;;1.17;0.82;;;;;;;;;;5033428;28;20025;-82
2024/01/25 03:18:49;;;;;;;1.10;0.50;;;;;;;;;;5024700;28;20041;-82
2024/01/25 03:21:15;;;;;;;1.25;0.90;;;;;;;;;;5020640;28;20379;-82
2024/01/25 03:23:41;;;;;;;3.40;1.15;;;;;;;;;;5031262;28;20029;-82
2024/01/25 03:26:07;;;;;;;4.65;1.55;;;;;;;;;;5033291;28;20028;-82
2024/01/25 03:28:37;;;;;;;3.95;1.23;;;;;;;;;;5031622;28;20040;-82
2024/01/25 03:31:03;;;;;;;2.10;1.02;;;;;;;;;;5032679;28;20479;-82
2024/01/25 03:33:29;;;;;;;1.23;0.75;;;;;;;;;;5030354;28;20455;-82
2024/01/25 03:35:55;;;;;;;0.63;0.45;;;;;;;;;;5030190;28;20038;-82
2024/01/25 03:38:21;;;;;;;4.03;1.83;;;;;;;;;;5033709;28;20033;-82
2024/01/25 03:40:47;;;;;;;5.15;0.85;;;;;;;;;;5018826;28;20034;-82
2024/01/25 03:43:13;;;;;;;0.75;0.43;;;;;;;;;;5027070;28;20041;-82
2024/01/25 03:45:39;;;;;;;0.98;0.40;;;;;;;;;;5031684;28;20033;-82
2024/01/25 03:48:05;;;;;;;2.13;1.08;;;;;;;;;;5032730;28;20040;-82
2024/01/25 03:50:31;;;;;;;1.38;0.40;;;;;;;;;;5033085;28;20026;-82
2024/01/25 03:52:57;;;;;;;3.70;0.80;;;;;;;;;;5025305;28;20403;-83
2024/01/25 03:55:23;;;;;;;1.17;0.50;;;;;;;;;;5029958;28;20081;-83
2024/01/25 03:57:49;;;;;;;1.30;0.73;;;;;;;;;;5030247;28;20653;-82
2024/01/25 04:00:15;;;;;;;4.28;1.42;;;;;;;;;;5018958;28;20136;-82
2024/01/25 04:02:41;;;;;;;6.30;1.77;;;;;;;;;;5012755;28;20034;-82
2024/01/25 04:05:08;;;;;;;4.47;1.48;;;;;;;;;;5031085;28;20037;-82
2024/01/25 04:07:34;;;;;;;5.47;1.55;;;;;;;;;;5032340;28;20112;-82
2024/01/25 04:09:59;;;;;;;1.20;0.88;;;;;;;;;;5025026;28;20530;-82
2024/01/25 04:12:25;;;;;;;3.50;1.40;;;;;;;;;;5024766;28;20030;-82
2024/01/25 04:14:51;;;;;;;2.90;0.77;;;;;;;;;;5027982;28;20032;-82
2024/01/25 04:17:17;;;;;;;1.17;0.80;;;;;;;;;;5022259;28;20034;-82
2024/01/25 04:19:43;;;;;;;1.63;1.27;;;;;;;;;;5028718;28;20479;-82
2024/01/25 04:22:10;;;;;;;3.17;1.30;;;;;;;;;;5028224;28;20044;-82
2024/01/25 04:24:36;;;;;;;1.08;0.57;;;;;;;;;;5013665;28;20033;-82
2024/01/25 04:27:02;;;;;;;1.42;0.90;;;;;;;;;;5016798;28;20029;-82
2024/01/25 04:29:28;;;;;;;2.25;0.75;;;;;;;;;;5032117;28;20030;-82
2024/01/25 04:31:54;;;;;;;1.05;0.38;;;;;;;;;;5019097;28;20018;-82
2024/01/25 04:34:20;;;;;;;2.00;0.77;;;;;;;;;;5029813;28;20034;-82
2024/01/25 04:36:46;;;;;;;1.15;0.55;;;;;;;;;;5030885;28;20034;-83
2024/01/25 04:39:12;;;;;;;1.92;0.63;;;;;;;;;;5025945;28;20037;-82
2024/01/25 04:41:38;;;;;;;1.77;0.55;;;;;;;;;;5032486;28;20029;-82
2024/01/25 04:44:04;;;;;;;1.50;0.80;;;;;;;;;;5031814;28;20076;-82
2024/01/25 04:46:36;;;;;;;2.53;1.52;;;;;;;;;;5034809;28;20056;-82
2024/01/25 04:49:02;;;;;;;1.10;0.20;;;;;;;;;;5037005;28;20034;-82
2024/01/25 04:51:28;;;;;;;0.80;0.60;;;;;;;;;;5024959;28;20030;-82
2024/01/25 04:53:54;;;;;;;3.85;1.65;;;;;;;;;;5021277;28;20026;-82
2024/01/25 04:56:20;;;;;;;0.43;0.38;;;;;;;;;;5016447;28;20041;-82
2024/01/25 04:58:46;;;;;;;1.80;0.95;;;;;;;;;;5023429;28;20037;-82
2024/01/25 05:01:12;;;;;;;2.47;0.82;;;;;;;;;;5035979;28;20025;-82
2024/01/25 05:03:38;;;;;;;2.63;1.67;;;;;;;;;;5034774;28;20029;-82
2024/01/25 05:06:04;;;;;;;2.25;1.55;;;;;;;;;;5032085;28;20029;-82
2024/01/25 05:08:30;;;;;;;3.58;1.45;;;;;;;;;;5035788;28;20531;-82
2024/01/25 05:10:57;;;;;;;1.55;0.73;;;;;;;;;;5025466;28;20478;-82
2024/01/25 05:13:23;;;;;;;3.15;1.60;;;;;;;;;;5028718;28;20022;-83
2024/01/25 05:15:49;;;;;;;2.90;1.48;;;;;;;;;;5031466;28;20099;-82
2024/01/25 05:18:15;;;;;;;5.45;1.20;;;;;;;;;;5035466;28;20033;-82
2024/01/25 05:20:41;;;;;;;3.53;1.48;;;;;;;;;;5033390;28;20416;-83
2024/01/25 05:23:07;;;;;;;2.33;1.25;;;;;;;;;;5035630;28;20029;-82
2024/01/25 05:25:33;;;;;;;3.67;0.85;;;;;;;;;;5035909;28;20033;-82
2024/01/25 05:27:59;;;;;;;1.17;0.65;;;;;;;;;;5027740;28;20096;-83
2024/01/25 05:30:25;;;;;;;2.33;1.48;;;;;;;;;;5025406;28;20062;-82
2024/01/25 05:32:54;;;;;;;3.55;1.08;;;;;;;;;;5034073;28;20071;-83
2024/01/25 05:35:20;;;;;;;2.08;1.42;;;;;;;;;;5020393;28;20037;-83
2024/01/25 05:37:46;;;;;;;6.50;2.13;;;;;;;;;;5028621;28;20072;-82
2024/01/25 05:40:12;;;;;;;2.17;0.90;;;;;;;;;;5032722;28;20053;-82
2024/01/25 05:42:39;;;;;;;4.47;1.80;;;;;;;;;;5029845;28;20041;-82
2024/01/25 05:45:05;;;;;;;8.05;3.08;;;;;;;;;;5027126;28;20057;-82
2024/01/25 05:47:31;;;;;;;2.58;1.63;;;;;;;;;;5029267;28;20029;-82
2024/01/25 05:49:57;;;;;;;4.25;1.58;;;;;;;;;;5035455;28;20076;-82
2024/01/25 05:52:27;;;;;;;2.53;1.35;;;;;;;;;;5034666;28;20049;-82
2024/01/25 05:54:53;;;;;;;3.15;1.23;;;;;;;;;;5021664;28;20025;-82
2024/01/25 05:57:20;;;;;;;4.47;1.08;;;;;;;;;;5031396;28;20069;-82
2024/01/25 05:59:48;;;;;;;4.72;3.22;;;;;;;;;;5034681;28;20026;-82
2024/01/25 06:02:14;;;;;;;9.30;6.00;;;;;;;;;;5019744;28;20034;-82
2024/01/25 06:04:40;;;;;;;5.97;3.70;;;;;;;;;;5015790;28;20035;-82
2024/01/25 06:07:06;;;;;;;3.72;2.03;;;;;;;;;;5026086;28;20025;-82
2024/01/25 06:09:32;;;;;;;1.48;0.85;;;;;;;;;;5034112;28;20503;-82
2024/01/25 06:11:58;;;;;;;1.42;1.05;;;;;;;;;;5029335;28;20033;-81
2024/01/25 06:14:25;;;;;;;1.77;1.02;;;;;;;;;;5026243;28;20047;-81
2024/01/25 06:16:51;;;;;;;1.52;0.70;;;;;;;;;;5029126;28;20033;-83
2024/01/25 06:19:17;;;;;;;3.47;1.33;;;;;;;;;;5032744;28;20112;-80
2024/01/25 06:21:43;;;;;;;1.70;1.00;;;;;;;;;;5032893;28;20047;-84
2024/01/25 06:24:09;;;;;;;3.60;1.63;;;;;;;;;;5037408;28;20037;-83
2024/01/25 06:26:35;;;;;;;1.17;0.65;;;;;;;;;;5031555;28;20372;-83
2024/01/25 06:29:01;;;;;;;1.48;0.73;;;;;;;;;;5015448;28;20035;-81
2024/01/25 06:31:27;;;;;;;1.05;0.70;;;;;;;;;;5029826;28;20039;-81
2024/01/25 06:33:53;;;;;;;2.28;1.13;;;;;;;;;;5029086;28;20036;-82
2024/01/25 06:36:19;;;;;;;3.08;1.60;;;;;;;;;;5023549;28;20032;-83
2024/01/25 06:38:45;;;;;;;11.48;0.98;;;;;;;;;;5029018;28;20025;-84
2024/01/25 06:41:11;;;;;;;2.75;1.33;;;;;;;;;;5035979;28;20044;-84
2024/01/25 06:43:39;;;;;;;12.23;1.63;;;;;;;;;;5026096;28;20046;-85
2024/01/25 06:46:06;;;;;;;1.40;0.70;;;;;;;;;;5037683;28;20169;-84
2024/01/25 06:48:32;;;;;;;3.70;1.02;;;;;;;;;;5042850;28;20163;-85
2024/01/25 06:50:58;;;;;;;5.10;1.85;;;;;;;;;;5042716;28;20033;-85
2024/01/25 06:53:24;;;;;;;3.08;0.85;;;;;;;;;;5024334;28;20452;-85
2024/01/25 06:55:50;;;;;;;1.98;0.90;;;;;;;;;;5028986;28;20039;-85
2024/01/25 06:58:16;;;;;;;3.53;1.55;;;;;;;;;;5031939;28;20033;-85
2024/01/25 07:00:42;;;;;;;10.82;1.58;;;;;;;;;;5025898;28;20037;-85
2024/01/25 07:03:08;;;;;;;5.50;1.02;;;;;;;;;;5030398;28;20459;-85
2024/01/25 07:05:35;;;;;;;2.22;1.02;;;;;;;;;;5025140;28;20092;-85
2024/01/25 07:08:02;;;;;;;10.23;2.33;;;;;;;;;;5027013;28;20029;-85
2024/01/25 07:10:28;;;;;;;5.45;1.80;;;;;;;;;;5025555;28;20026;-85
2024/01/25 07:12:54;;;;;;;2.17;1.25;;;;;;;;;;5030430;28;20030;-85
2024/01/25 07:15:20;;;;;;;3.10;1.35;;;;;;;;;;5019988;28;20045;-85
2024/01/25 07:17:46;;;;;;;4.47;1.15;;;;;;;;;;5032149;28;20124;-85
2024/01/25 07:20:13;;;;;;;6.18;1.20;;;;;;;;;;5033837;28;20033;-85
2024/01/25 07:22:40;;;;;;;2.17;1.20;;;;;;;;;;5025583;28;20044;-85
2024/01/25 07:25:06;;;;;;;2.00;1.25;;;;;;;;;;5028497;28;20803;-85
2024/01/25 07:27:32;;;;;;;6.55;1.92;;;;;;;;;;5026081;28;20080;-85
2024/01/25 07:29:58;;;;;;;1.40;0.80;;;;;;;;;;5030577;28;20565;-85
2024/01/25 07:32:24;;;;;;;1.70;0.82;;;;;;;;;;5028318;28;20038;-85
2024/01/25 07:34:51;;;;;;;1.67;0.93;;;;;;;;;;5030593;28;20037;-85
2024/01/25 07:37:18;;;;;;;4.53;2.58;;;;;;;;;;5022366;28;20033;-85
2024/01/25 07:39:44;;;;;;;4.05;0.88;;;;;;;;;;5031629;28;20629;-85
2024/01/25 07:42:11;;;;;;;3.30;1.75;;;;;;;;;;5031250;28;20572;-85
2024/01/25 07:44:37;;;;;;;1.55;0.88;;;;;;;;;;5024600;28;20128;-85
2024/01/25 07:47:03;;;;;;;1.02;0.68;;;;;;;;;;5022051;28;20025;-85
2024/01/25 07:49:29;;;;;;;3.25;0.75;;;;;;;;;;5031138;28;20522;-84
2024/01/25 07:51:56;;;;;;;6.20;1.10;;;;;;;;;;5032751;28;20046;-85
2024/01/25 07:54:22;;;;;;;1.95;0.95;;;;;;;;;;5035437;28;20064;-84
2024/01/25 07:56:48;;;;;;;4.03;0.47;;;;;;;;;;5021572;28;20042;-84
2024/01/25 07:59:14;;;;;;;2.35;1.42;;;;;;;;;;5023482;28;20542;-85
2024/01/25 08:01:40;;;;;;;2.67;1.42;;;;;;;;;;5016994;28;20042;-85
2024/01/25 08:04:06;;;;;;;4.55;2.05;;;;;;;;;;5026669;28;20033;-85
2024/01/25 08:06:32;;;;;;;2.42;1.05;;;;;;;;;;5022520;28;20026;-85
2024/01/25 08:08:58;;;;;;;3.40;1.80;;;;;;;;;;5029169;28;20038;-85
2024/01/25 08:11:25;;;;;;;7.07;2.75;;;;;;;;;;5031253;28;20022;-84
2024/01/25 08:13:51;;;;;;;3.17;2.30;;;;;;;;;;5028909;28;20144;-85
2024/01/25 08:16:20;;;;;;;5.95;2.55;;;;;;;;;;5016940;28;20112;-85
2024/01/25 08:18:46;;;;;;;2.13;1.38;;;;;;;;;;5026864;28;20033;-85
2024/01/25 08:21:13;;;;;;;1.55;0.93;;;;;;;;;;5030998;28;20025;-85
2024/01/25 08:23:42;;;;;;;0.82;0.35;;;;;;;;;;5020880;28;20061;-85
2024/01/25 08:26:09;;;;;;;2.33;1.15;;;;;;;;;;5020241;28;20022;-85
2024/01/25 08:28:36;;;;;;;1.77;1.13;;;;;;;;;;5032494;28;20036;-85
2024/01/25 08:31:02;;;;;;;2.88;1.27;;;;;;;;;;5035470;28;20032;-85
2024/01/25 08:33:28;;;;;;;1.42;0.85;;;;;;;;;;5032853;28;20033;-84
2024/01/25 08:35:54;;;;;;;4.03;0.70;;;;;;;;;;5033103;28;20029;-84
2024/01/25 08:38:20;;;;;;;0.40;0.20;;;;;;;;;;5026369;28;20041;-85
2024/01/25 08:40:46;;;;;;;1.83;0.60;;;;;;;;;;5012768;28;20049;-84
2024/01/25 08:43:12;;;;;;;2.00;0.65;;;;;;;;;;5027022;28;20042;-85
2024/01/25 08:45:38;;;;;;;1.92;1.40;;;;;;;;;;5019467;28;20163;-85
2024/01/25 08:48:04;;;;;;;1.90;0.75;;;;;;;;;;5027467;28;20075;-85
2024/01/25 08:50:30;;;;;;;4.07;1.27;;;;;;;;;;5021470;28;20123;-85
2024/01/25 08:52:57;;;;;;;1.08;0.50;;;;;;;;;;5020646;28;20115;-85
2024/01/25 08:55:23;;;;;;;1.50;0.98;;;;;;;;;;5028559;28;20093;-85
2024/01/25 08:57:50;;;;;;;3.13;0.70;;;;;;;;;;5026845;28;20124;-85
2024/01/25 09:00:18;;;;;;;0.50;0.35;;;;;;;;;;5028046;28;20029;-85
2024/01/25 09:02:44;;;;;;;1.33;0.73;;;;;;;;;;5041865;28;20046;-85
2024/01/25 09:05:10;;;;;;;1.05;0.63;;;;;;;;;;5030932;28;20427;-85
2024/01/25 09:07:36;;;;;;;5.18;0.80;;;;;;;;;;5026810;28;20920;-85
2024/01/25 09:10:04;;;;;;;0.95;0.60;;;;;;;;;;5027400;28;20541;-85
2024/01/25 09:12:30;;;;;;;0.65;0.40;;;;;;;;;;5023423;28;20132;-84
2024/01/25 09:14:56;;;;;;;0.68;0.43;;;;;;;;;;5008511;28;20590;-86
2024/01/25 09:17:22;;;;;;;1.60;0.68;;;;;;;;;;5020906;28;20041;-85
2024/01/25 09:19:52;;;;;;;3.40;1.60;;;;;;;;;;5028406;28;20033;-84
2024/01/25 09:22:21;;;;;;;2.85;1.45;;;;;;;;;;5022991;28;20048;-85
2024/01/25 09:24:47;;;;;;;1.23;0.60;;;;;;;;;;5026407;28;20037;-85
2024/01/25 09:27:14;;;;;;;4.43;0.68;;;;;;;;;;5024266;28;20125;-86
2024/01/25 09:29:40;;;;;;;0.95;0.63;;;;;;;;;;5027711;28;20041;-85
2024/01/25 09:32:09;;;;;;;6.13;1.13;;;;;;;;;;5020184;28;20037;-86
2024/01/25 09:34:36;;;;;;;1.33;1.00;;;;;;;;;;5025366;28;20042;-85
2024/01/25 09:37:02;;;;;;;4.07;1.05;;;;;;;;;;5029206;28;20112;-85
2024/01/25 09:39:29;;;;;;;1.30;0.65;;;;;;;;;;5025277;28;20117;-85
2024/01/25 09:41:57;;;;;;;2.95;1.35;;;;;;;;;;5023267;28;20034;-85
2024/01/25 09:44:23;;;;;;;3.22;1.08;;;;;;;;;;5029635;28;20038;-85
2024/01/25 09:46:49;;;;;;;1.67;0.57;;;;;;;;;;5033759;28;20640;-85
2024/01/25 09:49:16;;;;;;;2.63;1.17;;;;;;;;;;5033005;28;20141;-85
2024/01/25 09:51:42;;;;;;;2.10;0.88;;;;;;;;;;5038142;28;20042;-85
2024/01/25 09:54:09;;;;;;;1.30;0.52;;;;;;;;;;5022814;28;20041;-85
2024/01/25 09:56:36;;;;;;;4.78;0.93;;;;;;;;;;5022055;28;20030;-85
2024/01/25 09:59:03;;;;;;;1.15;0.85;;;;;;;;;;5023527;28;20065;-85
2024/01/25 10:01:29;;;;;;;0.55;0.50;;;;;;;;;;5032013;28;20036;-86
2024/01/25 10:03:58;;;;;;;2.15;0.90;;;;;;;;;;5031536;28;20044;-86
2024/01/25 10:06:27;;;;;;;1.38;0.40;;;;;;;;;;5022092;28;20026;-85
2024/01/25 10:08:53;;;;;;;2.97;0.77;;;;;;;;;;5027886;28;20044;-86
2024/01/25 10:11:19;;;;;;;3.20;0.65;;;;;;;;;;5031881;28;20159;-86
2024/01/25 10:13:47;;;;;;;2.53;1.10;;;;;;;;;;5030914;28;20034;-86
2024/01/25 10:16:16;;;;;;;0.77;0.60;;;;;;;;;;5026552;28;20061;-85
2024/01/25 10:18:43;;;;;;;0.57;0.35;;;;;;;;;;5026140;28;20171;-86
2024/01/25 10:21:10;;;;;;;2.17;0.85;;;;;;;;;;5031628;28;20470;-86
2024/01/25 10:23:37;;;;;;;2.95;1.00;;;;;;;;;;5029094;28;20499;-85
2024/01/25 10:26:03;;;;;;;6.18;1.10;;;;;;;;;;5028683;28;20034;-86
2024/01/25 10:28:30;;;;;;;2.47;0.90;;;;;;;;;;5023866;28;20477;-86
2024/01/25 10:30:57;;;;;;;1.42;0.52;;;;;;;;;;5025078;28;20483;-86
2024/01/25 10:33:24;;;;;;;1.95;0.80;;;;;;;;;;5027632;28;20433;-86
2024/01/25 10:35:55;;;;;;;0.75;0.45;;;;;;;;;;5023363;28;20040;-86
2024/01/25 10:38:21;;;;;;;1.35;0.75;;;;;;;;;;5029931;28;20038;-86
2024/01/25 10:40:47;;;;;;;0.63;0.40;;;;;;;;;;5029947;28;20037;-86
2024/01/25 10:43:14;;;;;;;1.02;0.77;;;;;;;;;;5027002;28;20116;-86
2024/01/25 10:45:40;;;;;;;2.22;0.95;;;;;;;;;;5026560;28;20064;-86
2024/01/25 10:48:07;;;;;;;2.45;1.17;;;;;;;;;;5013398;28;20037;-86
2024/01/25 10:50:33;;;;;;;1.95;1.02;;;;;;;;;;5024269;28;20034;-86
2024/01/25 10:53:00;;;;;;;3.95;0.50;;;;;;;;;;5026156;28;20062;-86
2024/01/25 10:55:27;;;;;;;1.63;0.45;;;;;;;;;;5025457;28;20029;-86
2024/01/25 10:57:53;;;;;;;0.77;0.30;;;;;;;;;;5027446;28;20034;-85
2024/01/25 11:00:19;;;;;;;0.98;0.32;;;;;;;;;;5027592;28;20029;-86
2024/01/25 11:02:46;;;;;;;0.68;0.40;;;;;;;;;;5018205;28;20065;-86
2024/01/25 11:05:17;;;;;;;0.60;0.40;;;;;;;;;;5025164;28;20033;-86
2024/01/25 11:07:47;;;;;;;2.53;1.00;;;;;;;;;;5018244;28;20033;-86
2024/01/25 11:10:14;;;;;;;0.68;0.30;;;;;;;;;;5028264;28;20057;-86
2024/01/25 11:12:57;;;;;;;1.25;0.60;;;;;;;;;;5013560;28;20021;-85
2024/01/25 11:15:36;;;;;;;0.32;0.30;;;;;;;;;;5023686;28;20030;-85
2024/01/25 11:18:06;;;;;;;1.40;0.50;;;;;;;;;;5023062;28;20379;-85
2024/01/25 11:20:32;;;;;;;0.47;0.30;;;;;;;;;;5021848;28;20026;-85
2024/01/25 11:22:59;;;;;;;0.38;0.20;;;;;;;;;;5018294;28;20044;-85
2024/01/25 11:25:27;;;;;;;3.97;0.30;;;;;;;;;;5027404;28;20029;-86
2024/01/25 11:27:54;;;;;;;0.95;0.20;;;;;;;;;;5022426;28;20096;-85
2024/01/25 11:30:20;;;;;;;0.47;0.20;;;;;;;;;;5030671;28;20383;-82
2024/01/25 11:32:50;;;;;;;0.10;0.10;;;;;;;;;;5023819;28;20037;-83
2024/01/25 11:35:16;;;;;;;0.30;0.20;;;;;;;;;;5022025;28;20091;-81
2024/01/25 11:37:46;;;;;;;0.10;0.10;;;;;;;;;;5012255;28;20395;-81
2024/01/25 11:40:12;;;;;;;0.60;0.30;;;;;;;;;;5025534;28;20042;-83
2024/01/25 11:42:39;;;;;;;1.25;0.40;;;;;;;;;;5038677;28;20041;-85
2024/01/25 11:45:06;;;;;;;0.95;0.28;;;;;;;;;;5027482;28;20120;-84
2024/01/25 11:47:32;;;;;;;0.65;0.20;;;;;;;;;;5025176;28;20032;-84
2024/01/25 11:49:58;;;;;;;0.15;0.05;;;;;;;;;;5016747;28;20037;-83
2024/01/25 11:52:26;;;;;;;0.32;0.22;;;;;;;;;;5034075;28;20053;-82
2024/01/25 11:54:52;;;;;;;0.38;0.20;;;;;;;;;;5018899;28;20076;-81
2024/01/25 11:57:18;;;;;;;0.57;0.30;;;;;;;;;;5024354;28;20034;-82
2024/01/25 11:59:45;;;;;;;0.73;0.32;;;;;;;;;;5029927;28;20029;-81
2024/01/25 12:02:12;;;;;;;0.17;0.10;;;;;;;;;;5022503;28;20072;-81
2024/01/25 12:04:38;;;;;;;0.30;0.20;;;;;;;;;;5018960;28;20411;-83
2024/01/25 12:07:04;;;;;;;0.10;0.10;;;;;;;;;;5023878;28;20026;-81
2024/01/25 12:09:30;;;;;;;2.45;0.70;;;;;;;;;;5031592;28;20042;-80
2024/01/25 12:11:56;;;;;;;0.13;0.10;;;;;;;;;;5032314;28;20040;-81
2024/01/25 12:14:24;;;;;;;1.55;0.57;;;;;;;;;;5031992;28;20422;-81
2024/01/25 12:16:50;;;;;;;0.70;0.20;;;;;;;;;;5023787;28;20087;-80
2024/01/25 12:19:16;;;;;;;0.77;0.30;;;;;;;;;;5031582;28;20035;-81
2024/01/25 12:21:45;;;;;;;0.22;0.10;;;;;;;;;;5030480;28;20113;-81
2024/01/25 12:24:11;;;;;;;0.30;0.10;;;;;;;;;;5025770;28;20080;-81
2024/01/25 12:26:37;;;;;;;0.32;0.10;;;;;;;;;;5013202;28;20029;-81
2024/01/25 12:29:04;;;;;;;0.55;0.13;;;;;;;;;;5021316;28;20038;-80
2024/01/25 12:31:30;;;;;;;0.15;0.10;;;;;;;;;;5028818;28;20049;-81
2024/01/25 12:33:58;;;;;;;0.60;0.22;;;;;;;;;;5030491;28;20076;-81
2024/01/25 12:36:24;;;;;;;0.60;0.22;;;;;;;;;;5019960;28;20034;-81
2024/01/25 12:38:50;;;;;;;0.10;0.10;;;;;;;;;;5019650;28;20041;-81
2024/01/25 12:41:16;;;;;;;3.15;0.82;;;;;;;;;;5015945;28;20030;-81
2024/01/25 12:43:42;;;;;;;0.65;0.40;;;;;;;;;;5029058;28;20047;-81
2024/01/25 12:46:08;;;;;;;0.90;0.20;;;;;;;;;;5029311;28;20037;-82
2024/01/25 12:48:34;;;;;;;0.93;0.47;;;;;;;;;;5026787;28;20444;-81
2024/01/25 12:51:00;;;;;;;0.90;0.30;;;;;;;;;;5030698;28;20044;-81
2024/01/25 12:53:26;;;;;;;0.40;0.20;;;;;;;;;;5027444;28;20514;-80
2024/01/25 12:55:52;;;;;;;2.90;0.40;;;;;;;;;;5020191;28;20040;-80
2024/01/25 12:58:18;;;;;;;0.88;0.45;;;;;;;;;;5023308;28;20041;-80
2024/01/25 13:00:45;;;;;;;0.20;0.10;;;;;;;;;;5026212;28;20140;-81
2024/01/25 13:03:11;;;;;;;2.30;0.10;;;;;;;;;;5020474;28;20053;-80
2024/01/25 13:05:39;;;;;;;1.02;0.10;;;;;;;;;;5033135;28;20038;-81
2024/01/25 13:08:05;;;;;;;0.00;0.00;;;;;;;;;;5029970;28;20044;-81
2024/01/25 13:10:31;;;;;;;0.40;0.10;;;;;;;;;;5024139;28;20033;-80
2024/01/25 13:12:57;;;;;;;0.10;0.00;;;;;;;;;;5031563;28;20028;-81
2024/01/25 13:15:23;;;;;;;0.20;0.00;;;;;;;;;;5018369;28;20395;-81
2024/01/25 13:17:50;;;;;;;0.45;0.10;;;;;;;;;;5031613;28;20034;-81
2024/01/25 13:20:16;;;;;;;0.20;0.10;;;;;;;;;;5035395;28;20040;-81
2024/01/25 13:22:42;;;;;;;0.05;0.03;;;;;;;;;;5026607;28;20030;-81
2024/01/25 13:25:10;;;;;;;0.40;0.20;;;;;;;;;;5019924;28;20048;-81
2024/01/25 13:27:36;;;;;;;0.20;0.10;;;;;;;;;;5031109;28;20026;-81
2024/01/25 13:30:03;;;;;;;0.00;0.00;;;;;;;;;;5027570;28;20072;-81
2024/01/25 13:32:29;;;;;;;0.10;0.10;;;;;;;;;;5030049;28;20032;-81
2024/01/25 13:34:55;;;;;;;0.00;0.00;;;;;;;;;;5031193;28;20025;-81
2024/01/25 13:37:22;;;;;;;0.50;0.10;;;;;;;;;;5033512;28;20026;-81
2024/01/25 13:39:48;;;;;;;0.38;0.10;;;;;;;;;;5025161;28;20026;-81
2024/01/25 13:42:14;;;;;;;0.00;0.00;;;;;;;;;;5023625;28;20096;-81
2024/01/25 13:44:40;;;;;;;0.55;0.20;;;;;;;;;;5025509;28;20108;-81
2024/01/25 13:47:06;;;;;;;0.30;0.10;;;;;;;;;;5031986;28;20109;-81
2024/01/25 13:49:32;;;;;;;0.30;0.10;;;;;;;;;;5034769;28;20037;-82
2024/01/25 13:52:02;;;;;;;0.00;0.00;;;;;;;;;;5033694;28;20052;-82
2024/01/25 13:54:28;;;;;;;0.20;0.00;;;;;;;;;;5031429;28;20038;-82
2024/01/25 13:56:55;;;;;;;0.13;0.10;;;;;;;;;;5024587;28;20499;-81
2024/01/25 13:59:21;;;;;;;4.72;0.57;;;;;;;;;;5028798;28;20379;-81
2024/01/25 14:01:47;;;;;;;0.25;0.20;;;;;;;;;;5034880;28;20094;-82
2024/01/25 14:04:13;;;;;;;0.57;0.38;;;;;;;;;;5028792;28;20069;-81
2024/01/25 14:06:39;;;;;;;3.47;0.80;;;;;;;;;;5015044;28;20030;-80
2024/01/25 14:09:05;;;;;;;5.18;0.60;;;;;;;;;;5026209;28;20030;-80
2024/01/25 14:11:32;;;;;;;2.08;0.63;;;;;;;;;;5034981;28;20034;-82
2024/01/25 14:13:57;;;;;;;0.90;0.35;;;;;;;;;;5035740;28;20057;-81
2024/01/25 14:16:24;;;;;;;3.55;0.73;;;;;;;;;;5029620;28;20498;-81
2024/01/25 14:18:50;;;;;;;1.17;0.47;;;;;;;;;;5032387;28;20241;-82
2024/01/25 14:21:16;;;;;;;0.30;0.20;;;;;;;;;;5029853;28;20030;-82
2024/01/25 14:23:42;;;;;;;0.95;0.17;;;;;;;;;;5027170;28;20034;-83
2024/01/25 14:26:08;;;;;;;1.35;0.47;;;;;;;;;;5028138;28;20026;-82
2024/01/25 14:28:34;;;;;;;0.40;0.15;;;;;;;;;;5027377;28;20029;-80
2024/01/25 14:31:00;;;;;;;0.88;0.45;;;;;;;;;;5015918;28;20063;-80
2024/01/25 14:33:26;;;;;;;3.78;0.40;;;;;;;;;;5031937;28;20026;-82
2024/01/25 14:35:52;;;;;;;0.55;0.40;;;;;;;;;;5035493;28;20108;-81
2024/01/25 14:38:18;;;;;;;1.38;0.35;;;;;;;;;;5022205;28;20112;-82